Time;durP1;ratioP1;P1;durP2;ratioP2;P2;SDS_P1;SDS_P2;PMS_P1;PMS_P2;Temp;Humidity;BMP_temperature;BMP_pressure;BME280_temperature;BME280_humidity;BME280_pressure;Samples;Min_cycle;Max_cycle;Signal;HPM_P1;HPM_P2
2021/08/18 00:00:59;;;;;;;7.68;7.03;;;17.70;99.90;;;;;;5003841;28;20229;-84
2021/08/18 00:03:28;;;;;;;8.00;7.30;;;17.70;99.90;;;;;;5011486;28;20566;-82
2021/08/18 00:05:54;;;;;;;8.52;7.78;;;17.70;99.90;;;;;;5013544;28;20200;-82
2021/08/18 00:08:21;;;;;;;8.25;7.55;;;17.70;99.90;;;;;;5020720;28;20207;-85
2021/08/18 00:10:48;;;;;;;8.32;7.63;;;17.70;99.90;;;;;;5020032;28;20217;-84
2021/08/18 00:13:14;;;;;;;7.95;7.25;;;17.70;99.90;;;;;;5016819;28;20204;-85
2021/08/18 00:15:43;;;;;;;8.60;7.90;;;17.70;99.90;;;;;;5008332;28;20372;-84
2021/08/18 00:18:10;;;;;;;7.63;7.03;;;17.70;99.90;;;;;;5006024;28;20201;-86
2021/08/18 00:20:37;;;;;;;8.07;7.28;;;17.70;99.90;;;;;;4994012;28;20321;-84
2021/08/18 00:23:04;;;;;;;7.55;6.93;;;17.70;99.90;;;;;;5006515;28;20203;-86
2021/08/18 00:25:30;;;;;;;7.40;6.80;;;17.70;99.90;;;;;;5009929;28;20575;-85
2021/08/18 00:27:57;;;;;;;8.40;7.60;;;17.70;99.90;;;;;;5013318;28;20208;-85
2021/08/18 00:30:25;;;;;;;8.73;8.00;;;17.70;99.90;;;;;;5013051;28;20638;-86
2021/08/18 00:32:53;;;;;;;7.25;6.55;;;17.70;99.90;;;;;;5001395;28;20671;-83
2021/08/18 00:35:21;;;;;;;7.93;7.30;;;17.70;99.90;;;;;;4998458;28;20221;-84
2021/08/18 00:37:47;;;;;;;8.57;7.78;;;17.70;99.90;;;;;;4985548;28;20667;-84
2021/08/18 00:40:16;;;;;;;8.32;7.53;;;17.70;99.90;;;;;;4994421;28;20221;-85
2021/08/18 00:42:45;;;;;;;7.43;6.82;;;17.70;99.90;;;;;;4995612;28;20681;-86
2021/08/18 00:45:13;;;;;;;7.95;7.18;;;17.70;99.90;;;;;;5013043;28;20224;-84
2021/08/18 00:47:44;;;;;;;8.80;8.10;;;17.70;99.90;;;;;;5000127;28;20201;-83
2021/08/18 00:50:16;;;;;;;8.98;8.18;;;17.70;99.90;;;;;;4997711;28;20232;-84
2021/08/18 00:52:42;;;;;;;9.70;8.82;;;17.70;99.90;;;;;;4999076;28;20205;-86
2021/08/18 00:55:11;;;;;;;8.02;7.32;;;17.70;99.90;;;;;;5014619;28;20215;-85
2021/08/18 00:57:39;;;;;;;8.27;7.57;;;17.70;99.90;;;;;;5015194;28;20673;-85
2021/08/18 01:00:07;;;;;;;8.25;7.55;;;17.70;99.90;;;;;;5014744;28;20228;-83
2021/08/18 01:02:36;;;;;;;8.43;7.72;;;17.70;99.90;;;;;;5005562;28;20205;-84
2021/08/18 01:05:04;;;;;;;7.30;6.70;;;17.70;99.90;;;;;;5000416;28;20675;-84
2021/08/18 01:07:32;;;;;;;8.05;7.25;;;17.70;99.90;;;;;;4998678;28;20189;-86
2021/08/18 01:09:59;;;;;;;7.15;6.50;;;17.70;99.90;;;;;;5006060;28;20221;-85
2021/08/18 01:12:26;;;;;;;7.88;7.18;;;17.70;99.90;;;;;;5016355;28;20197;-84
2021/08/18 01:14:53;;;;;;;7.80;7.10;;;17.70;99.90;;;;;;5001680;28;20205;-85
2021/08/18 01:17:21;;;;;;;8.35;7.65;;;17.70;99.90;;;;;;4996679;28;20226;-84
2021/08/18 01:19:48;;;;;;;7.50;6.90;;;17.70;99.90;;;;;;4996467;28;20227;-84
2021/08/18 01:22:15;;;;;;;7.15;6.55;;;17.70;99.90;;;;;;5008809;28;20201;-83
2021/08/18 01:24:43;;;;;;;6.30;5.80;;;17.70;99.90;;;;;;5009119;28;20643;-86
2021/08/18 01:27:10;;;;;;;7.30;6.80;;;17.70;99.90;;;;;;4998080;28;20204;-82
2021/08/18 01:29:38;;;;;;;6.97;6.38;;;17.60;99.90;;;;;;5007101;28;20719;-83
2021/08/18 01:32:06;;;;;;;6.35;5.85;;;17.60;99.90;;;;;;5010640;28;20212;-83
2021/08/18 01:34:35;;;;;;;6.85;6.30;;;17.60;99.90;;;;;;5004799;28;20194;-85
2021/08/18 01:37:02;;;;;;;6.15;5.65;;;17.70;99.90;;;;;;5013781;28;20243;-84
2021/08/18 01:39:29;;;;;;;5.53;5.03;;;17.70;99.90;;;;;;5014535;28;20408;-84
2021/08/18 01:41:55;;;;;;;6.53;6.03;;;17.60;99.90;;;;;;5015318;28;20207;-84
2021/08/18 01:44:22;;;;;;;6.13;5.63;;;17.60;99.90;;;;;;5002755;28;20205;-86
2021/08/18 01:46:50;;;;;;;6.43;5.93;;;17.60;99.90;;;;;;5007151;28;20205;-84
2021/08/18 01:49:18;;;;;;;5.53;5.13;;;17.60;99.90;;;;;;5010344;28;20216;-84
2021/08/18 01:51:44;;;;;;;5.57;5.07;;;17.60;99.90;;;;;;5014494;28;20211;-85
2021/08/18 01:54:13;;;;;;;5.75;5.30;;;17.60;99.90;;;;;;4998087;28;20671;-84
2021/08/18 01:56:40;;;;;;;7.22;6.53;;;17.60;99.90;;;;;;4995658;28;20221;-83
2021/08/18 01:59:06;;;;;;;4.82;4.53;;;17.60;99.90;;;;;;5011962;28;20227;-84
2021/08/18 02:01:33;;;;;;;5.82;5.22;;;17.60;99.90;;;;;;5011797;28;20193;-83
2021/08/18 02:04:01;;;;;;;5.25;4.85;;;17.60;99.90;;;;;;4999539;28;20205;-82
2021/08/18 02:06:31;;;;;;;6.13;5.63;;;17.60;99.90;;;;;;5013321;28;20231;-84
2021/08/18 02:08:57;;;;;;;5.32;4.93;;;17.60;99.90;;;;;;4998134;28;20221;-83
2021/08/18 02:11:24;;;;;;;5.00;4.60;;;17.60;99.90;;;;;;4995474;28;20192;-82
2021/08/18 02:13:51;;;;;;;5.72;5.25;;;17.60;99.90;;;;;;5004728;28;20212;-84
2021/08/18 02:16:17;;;;;;;5.10;4.60;;;17.70;99.90;;;;;;5007857;28;20640;-83
2021/08/18 02:18:44;;;;;;;4.55;4.25;;;17.60;99.90;;;;;;5006720;28;20384;-83
2021/08/18 02:21:12;;;;;;;4.80;4.43;;;17.60;99.90;;;;;;5013564;28;20638;-84
2021/08/18 02:23:39;;;;;;;5.10;4.70;;;17.50;99.90;;;;;;5002055;28;20718;-82
2021/08/18 02:26:05;;;;;;;5.47;5.07;;;17.50;99.90;;;;;;5007489;28;20345;-83
2021/08/18 02:28:32;;;;;;;5.38;4.97;;;17.60;99.90;;;;;;5012137;28;20209;-85
2021/08/18 02:30:59;;;;;;;4.70;4.40;;;17.60;99.90;;;;;;5007602;28;20707;-84
2021/08/18 02:33:26;;;;;;;5.45;5.05;;;17.60;99.90;;;;;;4994556;28;20197;-83
2021/08/18 02:35:53;;;;;;;5.32;4.90;;;17.60;99.90;;;;;;5009994;28;20232;-83
2021/08/18 02:38:21;;;;;;;5.00;4.60;;;17.60;99.90;;;;;;5005143;28;20212;-86
2021/08/18 02:40:48;;;;;;;4.70;4.30;;;17.50;99.90;;;;;;5010249;28;20237;-85
2021/08/18 02:43:14;;;;;;;4.85;4.45;;;17.60;99.90;;;;;;5016737;28;20204;-86
2021/08/18 02:45:41;;;;;;;4.43;4.03;;;17.60;99.90;;;;;;5015955;28;20197;-86
2021/08/18 02:48:08;;;;;;;5.47;4.55;;;17.60;99.90;;;;;;5007518;28;20205;-85
2021/08/18 02:50:35;;;;;;;4.50;4.20;;;17.60;99.90;;;;;;5007190;28;20223;-86
2021/08/18 02:53:01;;;;;;;5.60;5.10;;;17.60;99.90;;;;;;5008045;28;20206;-84
2021/08/18 02:55:30;;;;;;;5.13;4.78;;;17.50;99.90;;;;;;5008180;28;20193;-86
2021/08/18 02:57:57;;;;;;;4.85;4.32;;;17.50;99.90;;;;;;5008586;28;20218;-86
2021/08/18 03:00:24;;;;;;;4.72;4.22;;;17.60;99.90;;;;;;5003429;28;20220;-84
2021/08/18 03:02:51;;;;;;;4.53;4.22;;;17.50;99.90;;;;;;4997748;28;20671;-86
2021/08/18 03:05:18;;;;;;;3.63;3.33;;;17.50;99.90;;;;;;5005541;28;20291;-84
2021/08/18 03:07:45;;;;;;;4.50;4.10;;;17.60;99.90;;;;;;5008330;28;20304;-83
2021/08/18 03:10:12;;;;;;;4.28;3.97;;;17.60;99.90;;;;;;5006620;28;20224;-86
2021/08/18 03:12:40;;;;;;;4.25;3.95;;;17.50;99.90;;;;;;5014229;28;20200;-86
2021/08/18 03:15:08;;;;;;;4.13;3.83;;;17.40;99.90;;;;;;5014009;28;20224;-86
2021/08/18 03:17:34;;;;;;;3.83;3.55;;;17.50;99.90;;;;;;4997787;28;20225;-84
2021/08/18 03:20:01;;;;;;;3.80;3.50;;;17.40;99.90;;;;;;5013879;28;20711;-84
2021/08/18 03:22:28;;;;;;;4.30;3.90;;;17.50;99.90;;;;;;5011305;28;20212;-85
2021/08/18 03:24:54;;;;;;;4.22;3.85;;;17.60;99.90;;;;;;5001463;28;20288;-83
2021/08/18 03:27:22;;;;;;;4.60;4.20;;;17.60;99.90;;;;;;5013100;28;20197;-85
2021/08/18 03:29:51;;;;;;;4.25;3.95;;;17.50;99.90;;;;;;4993911;28;20221;-84
2021/08/18 03:32:17;;;;;;;3.28;3.08;;;17.60;99.90;;;;;;5001821;28;20201;-85
2021/08/18 03:34:44;;;;;;;3.53;3.28;;;17.50;99.90;;;;;;5009545;28;20201;-86
2021/08/18 03:37:11;;;;;;;3.97;3.67;;;17.50;99.90;;;;;;5013203;28;20209;-85
2021/08/18 03:39:37;;;;;;;4.60;4.20;;;17.50;99.90;;;;;;4994193;28;20308;-84
2021/08/18 03:42:05;;;;;;;3.40;3.10;;;17.50;99.90;;;;;;4994148;28;20205;-84
2021/08/18 03:44:32;;;;;;;3.60;3.30;;;17.50;99.90;;;;;;4997320;28;20193;-85
2021/08/18 03:47:00;;;;;;;3.70;3.35;;;17.50;99.90;;;;;;5003218;28;20240;-85
2021/08/18 03:49:27;;;;;;;3.58;3.38;;;17.50;99.90;;;;;;4993695;28;20783;-86
2021/08/18 03:51:53;;;;;;;3.47;3.20;;;17.50;99.90;;;;;;4994193;28;20256;-82
2021/08/18 03:54:20;;;;;;;3.05;2.85;;;17.50;99.90;;;;;;4994939;28;20202;-85
2021/08/18 03:56:46;;;;;;;2.83;2.63;;;17.50;99.90;;;;;;5013092;28;20228;-85
2021/08/18 03:59:13;;;;;;;3.92;3.63;;;17.50;99.90;;;;;;5012704;28;20236;-84
2021/08/18 04:01:40;;;;;;;4.13;3.47;;;17.50;99.90;;;;;;4999656;28;20214;-82
2021/08/18 04:04:08;;;;;;;3.83;3.53;;;17.50;99.90;;;;;;5015903;28;20227;-84
2021/08/18 04:06:35;;;;;;;3.65;3.35;;;17.50;99.90;;;;;;5019393;28;20502;-84
2021/08/18 04:09:02;;;;;;;3.25;3.03;;;17.50;99.90;;;;;;5013089;28;20248;-86
2021/08/18 04:11:29;;;;;;;3.33;3.13;;;17.50;99.90;;;;;;5016331;28;20205;-85
2021/08/18 04:13:56;;;;;;;2.60;2.40;;;17.50;99.90;;;;;;5014169;28;20287;-86
2021/08/18 04:16:22;;;;;;;2.85;2.65;;;17.50;99.90;;;;;;4997894;28;20248;-83
2021/08/18 04:18:50;;;;;;;3.30;3.08;;;17.40;99.90;;;;;;5011143;28;20208;-83
2021/08/18 04:21:18;;;;;;;4.22;3.65;;;17.40;99.90;;;;;;5012707;28;20238;-83
2021/08/18 04:23:44;;;;;;;3.42;3.22;;;17.50;99.90;;;;;;4992051;28;20656;-83
2021/08/18 04:26:11;;;;;;;2.83;2.63;;;17.40;99.90;;;;;;5008931;28;20192;-85
2021/08/18 04:28:38;;;;;;;3.22;2.92;;;17.40;99.90;;;;;;5010969;28;20197;-85
2021/08/18 04:31:05;;;;;;;3.65;3.35;;;17.50;99.90;;;;;;5011073;28;20192;-83
2021/08/18 04:33:31;;;;;;;3.72;2.95;;;17.40;99.90;;;;;;4992589;28;20252;-84
2021/08/18 04:35:58;;;;;;;3.40;3.20;;;17.50;99.90;;;;;;5006755;28;20201;-83
2021/08/18 04:38:26;;;;;;;3.50;3.20;;;17.40;99.90;;;;;;5007950;28;20415;-86
2021/08/18 04:40:53;;;;;;;3.22;2.92;;;17.40;99.90;;;;;;5012089;28;20224;-85
2021/08/18 04:43:20;;;;;;;3.28;3.08;;;17.50;99.90;;;;;;5012351;28;20231;-83
2021/08/18 04:45:46;;;;;;;3.40;3.17;;;17.40;99.90;;;;;;4996697;28;20213;-85
2021/08/18 04:48:13;;;;;;;3.42;3.20;;;17.40;99.90;;;;;;4995364;28;20200;-84
2021/08/18 04:50:40;;;;;;;3.67;3.38;;;17.40;99.90;;;;;;5012750;28;20229;-83
2021/08/18 04:53:07;;;;;;;3.78;3.47;;;17.40;99.90;;;;;;5005593;28;20197;-85
2021/08/18 04:55:36;;;;;;;3.45;2.90;;;17.40;99.90;;;;;;5002081;28;20196;-85
2021/08/18 04:58:02;;;;;;;3.90;3.25;;;17.40;99.90;;;;;;5002924;28;20650;-86
2021/08/18 05:00:29;;;;;;;3.38;3.08;;;17.40;99.90;;;;;;5012511;28;20224;-84
2021/08/18 05:02:56;;;;;;;3.58;3.30;;;17.40;99.90;;;;;;5007135;28;20206;-84
2021/08/18 05:05:22;;;;;;;3.70;3.40;;;17.40;99.90;;;;;;4993380;28;20201;-86
2021/08/18 05:07:50;;;;;;;3.45;3.03;;;17.40;99.90;;;;;;4998095;28;20193;-84
2021/08/18 05:10:17;;;;;;;3.55;3.25;;;17.40;99.90;;;;;;5010653;28;20236;-86
2021/08/18 05:12:45;;;;;;;4.05;3.65;;;17.40;99.90;;;;;;5018991;28;20201;-86
2021/08/18 05:15:12;;;;;;;3.90;3.55;;;17.40;99.90;;;;;;4998172;28;20448;-86
2021/08/18 05:17:39;;;;;;;3.67;3.38;;;17.40;99.90;;;;;;5001860;28;20217;-85
2021/08/18 05:20:07;;;;;;;3.58;3.28;;;17.40;99.90;;;;;;5014057;28;20726;-86
2021/08/18 05:22:34;;;;;;;3.15;2.95;;;17.40;99.90;;;;;;5010283;28;20201;-85
2021/08/18 05:25:00;;;;;;;4.00;3.60;;;17.20;99.90;;;;;;5007231;28;20197;-84
2021/08/18 05:27:27;;;;;;;4.18;3.88;;;17.40;99.90;;;;;;5010388;28;20730;-84
2021/08/18 05:29:55;;;;;;;3.95;3.58;;;17.40;99.90;;;;;;5005024;28;20639;-86
2021/08/18 05:32:22;;;;;;;4.07;3.78;;;17.40;99.90;;;;;;4997319;28;20561;-85
2021/08/18 05:34:48;;;;;;;3.53;3.22;;;17.40;99.90;;;;;;4997957;28;20201;-86
2021/08/18 05:37:15;;;;;;;3.78;3.47;;;17.40;99.90;;;;;;5009701;28;20769;-84
2021/08/18 05:39:41;;;;;;;3.85;3.55;;;17.40;99.90;;;;;;5010619;28;20225;-86
2021/08/18 05:42:08;;;;;;;5.07;3.72;;;17.40;99.90;;;;;;5017289;28;20224;-86
2021/08/18 05:44:35;;;;;;;4.10;3.70;;;17.40;99.90;;;;;;5017153;28;20263;-84
2021/08/18 05:47:03;;;;;;;4.50;3.90;;;17.40;99.90;;;;;;5001406;28;20248;-85
2021/08/18 05:49:30;;;;;;;3.92;3.63;;;17.40;99.90;;;;;;5016797;28;20567;-82
2021/08/18 05:51:57;;;;;;;3.85;3.55;;;17.40;99.90;;;;;;5002288;28;20671;-85
2021/08/18 05:54:23;;;;;;;3.60;3.40;;;17.50;99.90;;;;;;4999424;28;20264;-84
2021/08/18 05:56:52;;;;;;;5.60;4.93;;;17.50;99.90;;;;;;5017523;28;20189;-80
2021/08/18 05:59:18;;;;;;;6.40;5.75;;;17.50;99.90;;;;;;5009856;28;20307;-83
2021/08/18 06:01:45;;;;;;;5.28;4.80;;;17.50;99.90;;;;;;5008399;28;20747;-82
2021/08/18 06:04:13;;;;;;;5.30;4.88;;;17.50;99.90;;;;;;5014857;28;20200;-82
2021/08/18 06:06:40;;;;;;;4.88;4.22;;;17.60;99.90;;;;;;5011623;28;20211;-82
2021/08/18 06:09:06;;;;;;;4.30;3.90;;;17.60;99.90;;;;;;5013040;28;20217;-84
2021/08/18 06:11:33;;;;;;;4.90;4.47;;;18.40;99.90;;;;;;5014984;28;20336;-82
2021/08/18 06:14:00;;;;;;;3.53;3.25;;;17.70;99.90;;;;;;5015406;28;20240;-82
2021/08/18 06:16:27;;;;;;;4.65;4.25;;;17.60;99.90;;;;;;5015691;28;20262;-83
2021/08/18 06:18:54;;;;;;;4.70;4.28;;;17.60;99.90;;;;;;5012412;28;20228;-84
2021/08/18 06:21:22;;;;;;;3.97;3.60;;;17.60;99.90;;;;;;5016554;28;20197;-83
2021/08/18 06:23:48;;;;;;;5.05;4.70;;;17.70;99.90;;;;;;5006875;28;20213;-83
2021/08/18 06:26:15;;;;;;;3.85;3.55;;;17.60;99.90;;;;;;5017208;28;20205;-83
2021/08/18 06:28:42;;;;;;;4.03;3.72;;;17.70;99.90;;;;;;5016287;28;20615;-83
2021/08/18 06:31:09;;;;;;;4.50;4.15;;;17.70;99.90;;;;;;5012830;28;20247;-81
2021/08/18 06:33:35;;;;;;;3.75;3.45;;;17.80;99.90;;;;;;5012180;28;20196;-82
2021/08/18 06:36:02;;;;;;;3.50;3.20;;;17.90;99.90;;;;;;5015658;28;20220;-85
2021/08/18 06:38:31;;;;;;;3.90;3.47;;;17.90;99.90;;;;;;5005750;28;20225;-83
2021/08/18 06:40:57;;;;;;;4.72;4.20;;;18.00;99.90;;;;;;5015077;28;20216;-82
2021/08/18 06:43:24;;;;;;;5.18;4.68;;;18.00;99.90;;;;;;5013918;28;20263;-84
2021/08/18 06:45:51;;;;;;;4.20;3.90;;;18.00;99.90;;;;;;5013631;28;20216;-82
2021/08/18 06:48:18;;;;;;;4.55;3.83;;;18.00;99.90;;;;;;4998890;28;20295;-85
2021/08/18 06:50:44;;;;;;;4.10;3.80;;;18.00;99.90;;;;;;4986268;28;20221;-84
2021/08/18 06:53:11;;;;;;;2.85;2.65;;;17.90;99.90;;;;;;5004425;28;20260;-83
2021/08/18 06:55:39;;;;;;;4.45;4.05;;;17.90;99.90;;;;;;5016473;28;20200;-84
2021/08/18 06:58:05;;;;;;;4.10;3.75;;;17.90;99.90;;;;;;5021437;28;20220;-82
2021/08/18 07:00:32;;;;;;;3.95;3.65;;;17.90;99.90;;;;;;5011844;28;20224;-83
2021/08/18 07:02:59;;;;;;;3.65;3.30;;;17.90;99.90;;;;;;5000813;28;20201;-84
2021/08/18 07:05:31;;;;;;;3.63;3.17;;;17.90;99.90;;;;;;5013287;28;20274;-82
2021/08/18 07:07:57;;;;;;;3.72;3.42;;;17.90;99.90;;;;;;5007450;28;20201;-84
2021/08/18 07:10:24;;;;;;;3.67;3.35;;;17.90;99.90;;;;;;4993809;28;20384;-82
2021/08/18 07:12:52;;;;;;;4.13;2.90;;;17.90;99.90;;;;;;5005495;28;20193;-83
2021/08/18 07:15:19;;;;;;;3.85;3.33;;;17.90;99.90;;;;;;5013259;28;20228;-83
2021/08/18 07:17:46;;;;;;;3.00;2.80;;;17.90;99.90;;;;;;4999958;28;20232;-84
2021/08/18 07:20:13;;;;;;;4.05;3.65;;;17.90;99.90;;;;;;5009769;28;20220;-82
2021/08/18 07:22:40;;;;;;;3.20;2.67;;;18.00;99.90;;;;;;5010755;28;20259;-84
2021/08/18 07:25:07;;;;;;;3.20;3.00;;;18.00;99.90;;;;;;5003310;28;20201;-83
2021/08/18 07:27:34;;;;;;;3.30;2.80;;;18.00;99.90;;;;;;5011957;28;20193;-82
2021/08/18 07:30:02;;;;;;;2.83;2.63;;;18.00;99.90;;;;;;5013243;28;20772;-82
2021/08/18 07:32:29;;;;;;;2.40;2.20;;;18.00;99.90;;;;;;4999042;28;20205;-82
2021/08/18 07:34:55;;;;;;;3.45;2.42;;;18.00;99.90;;;;;;4994451;28;20337;-82
2021/08/18 07:37:23;;;;;;;2.78;2.58;;;18.10;99.90;;;;;;5007465;28;20690;-82
2021/08/18 07:39:49;;;;;;;3.72;3.00;;;18.10;99.90;;;;;;4999807;28;20232;-83
2021/08/18 07:42:16;;;;;;;4.85;3.05;;;18.10;99.90;;;;;;5008619;28;20196;-85
2021/08/18 07:44:43;;;;;;;2.92;2.10;;;18.20;99.90;;;;;;5030070;28;20223;-83
2021/08/18 07:47:11;;;;;;;3.05;2.80;;;18.10;99.90;;;;;;5025729;28;20192;-86
2021/08/18 07:49:38;;;;;;;2.38;2.17;;;18.20;99.90;;;;;;5015567;28;20262;-84
2021/08/18 07:52:05;;;;;;;2.85;2.60;;;18.20;99.90;;;;;;5004399;28;20674;-86
2021/08/18 07:54:32;;;;;;;2.58;2.38;;;18.30;99.90;;;;;;5009740;28;20737;-85
2021/08/18 07:56:58;;;;;;;2.83;2.53;;;18.30;99.90;;;;;;5008115;28;20622;-84
2021/08/18 07:59:25;;;;;;;2.10;1.98;;;18.30;99.90;;;;;;5004893;28;20576;-85
2021/08/18 08:01:52;;;;;;;2.35;2.15;;;18.30;99.90;;;;;;5010518;28;20189;-85
2021/08/18 08:04:20;;;;;;;2.33;1.98;;;18.40;99.90;;;;;;5006163;28;20197;-84
2021/08/18 08:06:47;;;;;;;2.15;1.95;;;18.40;99.90;;;;;;5010698;28;20197;-83
2021/08/18 08:09:13;;;;;;;6.40;2.80;;;18.40;99.90;;;;;;4999288;28;20631;-85
2021/08/18 08:11:40;;;;;;;2.42;2.22;;;18.30;99.90;;;;;;5009536;28;20717;-84
2021/08/18 08:14:07;;;;;;;2.65;2.13;;;18.30;99.90;;;;;;5010877;28;20200;-85
2021/08/18 08:16:33;;;;;;;2.60;2.10;;;18.30;99.90;;;;;;5008422;28;20205;-84
2021/08/18 08:19:00;;;;;;;6.32;2.42;;;18.20;99.90;;;;;;4999480;28;20271;-83
2021/08/18 08:21:28;;;;;;;2.45;2.03;;;18.20;99.90;;;;;;5010111;28;20335;-84
2021/08/18 08:23:55;;;;;;;2.13;2.03;;;18.20;99.90;;;;;;4993473;28;20201;-84
2021/08/18 08:26:23;;;;;;;2.25;2.05;;;18.20;99.90;;;;;;5010653;28;20204;-84
2021/08/18 08:28:50;;;;;;;2.00;1.90;;;18.20;99.90;;;;;;5008741;28;20196;-82
2021/08/18 08:31:16;;;;;;;3.67;1.98;;;18.30;99.90;;;;;;5005518;28;20193;-82
2021/08/18 08:33:43;;;;;;;3.38;2.70;;;18.30;99.90;;;;;;5004375;28;20201;-83
2021/08/18 08:36:10;;;;;;;2.35;2.00;;;18.20;99.90;;;;;;5008822;28;20243;-85
2021/08/18 08:38:38;;;;;;;2.50;1.83;;;18.20;99.90;;;;;;4993935;28;20295;-84
2021/08/18 08:41:07;;;;;;;3.15;2.10;;;18.20;99.90;;;;;;5004957;28;20635;-83
2021/08/18 08:43:34;;;;;;;3.55;2.40;;;18.30;99.90;;;;;;5009682;28;20201;-85
2021/08/18 08:46:00;;;;;;;2.80;2.38;;;18.40;99.90;;;;;;5008038;28;20674;-85
2021/08/18 08:48:28;;;;;;;2.42;2.22;;;18.50;99.90;;;;;;5000449;28;20189;-81
2021/08/18 08:50:54;;;;;;;3.58;2.40;;;18.60;99.90;;;;;;5008014;28;20483;-84
2021/08/18 08:53:21;;;;;;;2.40;2.20;;;18.70;99.90;;;;;;5004677;28;20193;-85
2021/08/18 08:55:49;;;;;;;1.90;1.70;;;18.80;99.90;;;;;;4993800;28;20330;-82
2021/08/18 08:58:16;;;;;;;2.13;1.92;;;18.80;99.90;;;;;;4992754;28;20400;-82
2021/08/18 09:00:42;;;;;;;2.88;2.00;;;18.90;99.90;;;;;;5004836;28;20225;-83
2021/08/18 09:03:12;;;;;;;1.90;1.80;;;18.90;99.90;;;;;;5012627;28;20211;-84
2021/08/18 09:05:39;;;;;;;2.25;2.05;;;18.90;99.90;;;;;;5011906;28;20237;-80
2021/08/18 09:08:10;;;;;;;2.15;1.95;;;18.80;99.90;;;;;;4997734;28;20244;-84
2021/08/18 09:10:37;;;;;;;2.90;1.95;;;19.10;99.90;;;;;;5005790;28;20212;-82
2021/08/18 09:13:14;;;;;;;1.98;1.80;;;19.20;99.90;;;;;;5015586;28;20205;-82
2021/08/18 09:15:41;;;;;;;1.80;1.70;;;19.20;99.90;;;;;;5009203;28;20215;-84
2021/08/18 09:18:08;;;;;;;1.92;1.80;;;19.20;99.90;;;;;;5030530;28;20219;-84
2021/08/18 09:20:40;;;;;;;2.42;1.75;;;19.10;99.90;;;;;;5033686;28;20358;-83
2021/08/18 09:23:11;;;;;;;3.13;2.00;;;19.10;99.90;;;;;;4995614;28;20629;-83
2021/08/18 09:25:39;;;;;;;2.60;1.85;;;19.10;99.90;;;;;;5020592;28;20192;-85
2021/08/18 09:28:19;;;;;;;3.53;2.15;;;19.10;99.90;;;;;;5031326;28;20200;-83
2021/08/18 09:30:48;;;;;;;1.80;1.70;;;19.00;99.90;;;;;;5014162;28;20633;-84
2021/08/18 09:33:16;;;;;;;1.60;1.48;;;19.10;99.90;;;;;;5000982;28;20264;-82
2021/08/18 09:35:44;;;;;;;2.47;2.00;;;19.10;99.90;;;;;;5016943;28;20196;-82
2021/08/18 09:38:13;;;;;;;1.75;1.65;;;19.10;99.90;;;;;;5006278;28;20259;-80
2021/08/18 09:40:42;;;;;;;3.00;2.70;;;19.10;99.90;;;;;;5014176;28;20257;-83
2021/08/18 09:43:12;;;;;;;2.13;1.92;;;19.10;99.90;;;;;;5011246;28;20202;-84
2021/08/18 09:45:42;;;;;;;2.13;1.92;;;19.10;99.90;;;;;;5015373;28;20683;-85
2021/08/18 09:48:11;;;;;;;2.38;1.70;;;19.10;99.90;;;;;;5013044;28;20623;-82
2021/08/18 09:50:57;;;;;;;2.47;2.28;;;19.10;99.90;;;;;;5017182;28;20737;-83
2021/08/18 09:53:25;;;;;;;2.25;1.67;;;19.10;99.90;;;;;;5006614;28;20714;-83
2021/08/18 09:55:55;;;;;;;2.30;1.98;;;19.20;99.90;;;;;;5009350;28;20655;-84
2021/08/18 09:58:27;;;;;;;2.28;2.08;;;19.30;99.90;;;;;;5005091;28;20213;-84
2021/08/18 10:00:56;;;;;;;2.20;2.00;;;19.40;99.90;;;;;;5003258;28;20595;-83
2021/08/18 10:03:23;;;;;;;2.10;1.90;;;19.50;99.90;;;;;;5004732;28;20201;-84
2021/08/18 10:05:53;;;;;;;2.30;2.10;;;19.60;99.90;;;;;;5026878;28;20199;-85
2021/08/18 10:08:20;;;;;;;2.15;1.95;;;19.70;99.90;;;;;;5003934;28;20243;-84
2021/08/18 10:10:48;;;;;;;2.05;1.85;;;19.80;99.90;;;;;;5018739;28;20220;-85
2021/08/18 10:13:15;;;;;;;1.73;1.50;;;19.90;99.90;;;;;;5022356;28;20196;-81
2021/08/18 10:15:43;;;;;;;2.10;1.90;;;19.90;99.90;;;;;;5025842;28;20196;-83
2021/08/18 10:18:12;;;;;;;2.15;1.95;;;20.00;99.90;;;;;;5018085;28;20204;-86
2021/08/18 10:20:39;;;;;;;2.13;1.92;;;20.00;99.90;;;;;;5014976;28;20225;-84
2021/08/18 10:23:10;;;;;;;2.13;1.92;;;20.00;99.90;;;;;;5010062;28;20197;-85
2021/08/18 10:25:47;;;;;;;2.40;2.20;;;20.00;99.90;;;;;;5023985;28;20232;-85
2021/08/18 10:28:15;;;;;;;3.15;2.13;;;20.00;99.90;;;;;;5015207;28;20209;-85
2021/08/18 10:30:48;;;;;;;2.35;2.15;;;20.00;99.90;;;;;;5013949;28;20296;-86
2021/08/18 10:33:48;;;;;;;2.60;2.20;;;20.10;99.90;;;;;;5012191;28;20610;-84
2021/08/18 10:36:36;;;;;;;2.42;2.22;;;20.10;99.90;;;;;;5008106;28;20248;-83
2021/08/18 10:39:27;;;;;;;2.40;2.08;;;20.10;99.90;;;;;;5010172;28;20221;-82
2021/08/18 10:42:00;;;;;;;1.70;1.60;;;20.10;99.90;;;;;;5015984;28;20211;-82
2021/08/18 10:44:42;;;;;;;2.60;1.98;;;20.10;99.90;;;;;;5017084;28;20205;-86
2021/08/18 10:47:14;;;;;;;2.83;2.10;;;20.20;99.90;;;;;;5026107;28;20282;-83
2021/08/18 10:49:41;;;;;;;2.60;2.00;;;20.20;99.90;;;;;;5020994;28;20220;-85
2021/08/18 10:52:09;;;;;;;2.58;2.38;;;20.30;99.90;;;;;;5015433;28;20674;-85
2021/08/18 10:54:44;;;;;;;3.10;2.38;;;20.30;99.90;;;;;;5009263;28;20208;-84
2021/08/18 10:57:39;;;;;;;2.50;2.30;;;20.30;99.90;;;;;;5003892;28;20200;-82
2021/08/18 11:00:20;;;;;;;3.15;2.60;;;20.30;99.90;;;;;;5013476;28;20232;-82
2021/08/18 11:03:06;;;;;;;2.72;1.90;;;20.40;99.90;;;;;;5014234;28;20641;-83
2021/08/18 11:05:46;;;;;;;2.45;2.25;;;20.40;99.90;;;;;;5016639;28;20250;-83
2021/08/18 11:08:16;;;;;;;4.90;2.40;;;20.40;99.90;;;;;;5012137;28;20197;-84
2021/08/18 11:11:03;;;;;;;2.45;2.25;;;20.50;99.90;;;;;;5013527;28;20225;-84
2021/08/18 11:13:36;;;;;;;3.08;2.60;;;20.50;99.90;;;;;;5011954;28;20567;-83
2021/08/18 11:16:07;;;;;;;1.98;1.77;;;20.50;99.90;;;;;;5007533;28;20201;-84
2021/08/18 11:18:35;;;;;;;2.08;1.92;;;20.50;99.90;;;;;;5012957;28;20206;-85
2021/08/18 11:21:02;;;;;;;3.40;2.08;;;20.50;99.90;;;;;;5013690;28;20930;-86
2021/08/18 11:23:33;;;;;;;3.58;2.47;;;20.50;99.90;;;;;;5026942;23;20282;-75
2021/08/18 11:26:03;;;;;;;3.30;1.90;;;20.60;99.90;;;;;;5031833;28;20192;-75
2021/08/18 11:28:34;;;;;;;1.98;1.88;;;20.60;99.90;;;;;;5024403;28;20204;-75
2021/08/18 11:31:03;;;;;;;2.60;2.00;;;20.60;99.90;;;;;;5013013;28;20197;-75
2021/08/18 11:33:30;;;;;;;2.40;2.00;;;20.60;99.90;;;;;;5019752;28;20204;-73
2021/08/18 11:35:59;;;;;;;2.35;2.15;;;20.60;99.90;;;;;;5031115;28;20218;-73
2021/08/18 11:38:25;;;;;;;2.22;2.00;;;20.60;99.90;;;;;;5026117;28;20606;-75
2021/08/18 11:40:55;;;;;;;2.40;2.20;;;20.60;99.90;;;;;;5025819;28;20224;-75
2021/08/18 11:43:39;;;;;;;3.80;2.50;;;20.60;99.90;;;;;;5012504;28;20203;-74
2021/08/18 11:46:06;;;;;;;2.95;2.63;;;20.60;99.90;;;;;;5020913;28;20188;-75
2021/08/18 11:48:34;;;;;;;2.50;2.30;;;20.70;99.90;;;;;;5020356;28;20247;-75
2021/08/18 11:51:01;;;;;;;5.20;3.00;;;20.70;99.90;;;;;;5019301;28;20208;-74
2021/08/18 11:53:28;;;;;;;2.90;2.55;;;20.70;99.90;;;;;;5012515;28;20539;-74
2021/08/18 11:56:01;;;;;;;2.30;2.10;;;20.70;99.90;;;;;;5012616;28;20205;-74
2021/08/18 11:58:31;;;;;;;2.80;2.60;;;20.80;99.90;;;;;;5012156;28;20601;-76
2021/08/18 12:01:00;;;;;;;3.33;3.13;;;20.80;99.90;;;;;;5023382;28;20600;-74
2021/08/18 12:03:27;;;;;;;3.75;3.45;;;20.80;99.90;;;;;;5030894;28;20203;-75
2021/08/18 12:05:59;;;;;;;2.70;2.50;;;20.90;99.90;;;;;;5042765;28;20192;-74
2021/08/18 12:08:37;;;;;;;3.35;3.05;;;20.90;99.90;;;;;;5024762;28;20196;-76
2021/08/18 12:11:07;;;;;;;3.70;3.40;;;20.90;99.90;;;;;;5025031;28;20191;-75
2021/08/18 12:13:42;;;;;;;3.92;3.45;;;20.90;99.90;;;;;;5012441;28;20197;-74
2021/08/18 12:16:26;;;;;;;3.88;3.58;;;20.90;99.90;;;;;;5003255;28;20221;-74
2021/08/18 12:18:54;;;;;;;3.35;3.13;;;20.90;99.90;;;;;;4992297;28;20205;-74
2021/08/18 12:21:23;;;;;;;4.28;3.83;;;20.90;99.90;;;;;;4992447;28;20252;-74
2021/08/18 12:23:52;;;;;;;3.40;3.10;;;20.90;99.90;;;;;;4992738;28;20625;-74
2021/08/18 12:26:28;;;;;;;4.95;4.55;;;20.90;99.90;;;;;;5009421;28;20235;-74
2021/08/18 12:28:56;;;;;;;4.47;4.18;;;20.90;99.90;;;;;;5016793;28;20863;-74
2021/08/18 12:31:24;;;;;;;4.72;4.28;;;20.90;99.90;;;;;;5031831;28;20195;-74
2021/08/18 12:34:07;;;;;;;4.05;3.75;;;20.90;99.90;;;;;;5013503;28;20197;-74
2021/08/18 12:36:33;;;;;;;7.40;4.50;;;20.90;99.90;;;;;;5011405;28;20626;-74
2021/08/18 12:39:01;;;;;;;4.45;4.13;;;20.90;99.90;;;;;;4999634;28;20260;-74
2021/08/18 12:41:30;;;;;;;4.95;4.55;;;20.90;99.90;;;;;;5009222;28;20225;-74
2021/08/18 12:44:05;;;;;;;4.35;4.05;;;20.90;99.90;;;;;;5007357;28;20250;-74
2021/08/18 12:46:33;;;;;;;6.47;5.10;;;20.80;99.90;;;;;;5002995;28;20741;-74
2021/08/18 12:49:24;;;;;;;5.55;5.05;;;20.90;99.90;;;;;;4997317;28;20189;-74
2021/08/18 12:51:51;;;;;;;4.05;3.75;;;20.90;99.90;;;;;;5003990;28;20608;-74
2021/08/18 12:54:17;;;;;;;4.60;4.20;;;20.90;99.90;;;;;;5007634;28;20209;-73